Time;durP1;ratioP1;P1;durP2;ratioP2;P2;SDS_P1;SDS_P2;PMS_P1;PMS_P2;Temp;Humidity;BMP_temperature;BMP_pressure;BME280_temperature;BME280_humidity;BME280_pressure;Samples;Min_cycle;Max_cycle;Signal;HPM_P1;HPM_P2
2021/10/22 00:00:06;;;;;;;;;5.00;4.00;;;;;18.69;48.67;101699.09;4999484;28;45321;-63
2021/10/22 00:02:31;;;;;;;;;4.33;4.33;;;;;18.70;48.53;101706.19;4999383;28;45503;-63
2021/10/22 00:04:57;;;;;;;;;3.00;2.67;;;;;18.67;48.87;101701.78;4981280;28;47277;-63
2021/10/22 00:07:22;;;;;;;;;3.67;3.67;;;;;18.68;48.86;101707.97;4998745;28;45415;-63
2021/10/22 00:09:48;;;;;;;;;6.33;6.00;;;;;18.68;48.38;101708.84;4999331;28;45399;-63
2021/10/22 00:12:13;;;;;;;;;6.00;4.33;;;;;18.68;48.54;101710.63;4999327;28;45457;-63
2021/10/22 00:14:38;;;;;;;;;4.67;4.67;;;;;18.68;48.67;101713.28;4999026;28;45969;-64
2021/10/22 00:17:04;;;;;;;;;7.00;4.00;;;;;18.67;48.52;101709.75;4999102;28;45555;-63
2021/10/22 00:19:29;;;;;;;;;5.00;3.33;;;;;18.67;48.69;101708.88;4998866;28;45325;-63
2021/10/22 00:21:55;;;;;;;;;4.33;3.33;;;;;18.66;48.80;101707.97;4999210;28;45262;-64
2021/10/22 00:24:20;;;;;;;;;4.33;4.33;;;;;18.67;48.56;101711.53;4998715;28;47088;-63
2021/10/22 00:26:45;;;;;;;;;5.33;4.00;;;;;18.66;48.67;101712.41;4998365;28;45362;-63
2021/10/22 00:29:11;;;;;;;;;3.33;3.33;;;;;18.65;48.58;101708.88;4998793;28;45246;-63
2021/10/22 00:31:36;;;;;;;;;3.00;2.67;;;;;18.67;48.32;101712.41;4998722;28;45373;-63
2021/10/22 00:34:01;;;;;;;;;5.00;5.00;;;;;18.66;48.54;101712.41;4998591;28;47126;-63
2021/10/22 00:36:28;;;;;;;;;4.67;4.67;;;;;18.65;48.67;101713.31;4998693;28;45246;-63
2021/10/22 00:38:53;;;;;;;;;4.00;4.00;;;;;18.65;48.44;101714.19;4998783;28;45258;-63
2021/10/22 00:41:19;;;;;;;;;5.00;3.67;;;;;18.65;48.66;101711.53;4998908;28;45396;-63
2021/10/22 00:43:46;;;;;;;;;4.67;3.33;;;;;18.65;48.72;101713.31;4998526;28;46860;-63
2021/10/22 00:46:11;;;;;;;;;6.33;3.33;;;;;18.65;48.69;101714.19;4998499;28;45316;-63
2021/10/22 00:48:38;;;;;;;;;3.67;3.33;;;;;18.63;48.43;101711.50;4998547;28;45354;-63
2021/10/22 00:51:07;;;;;;;;;5.33;5.00;;;;;18.63;48.58;101716.84;4998701;28;45438;-63
2021/10/22 00:53:36;;;;;;;;;3.33;3.33;;;;;18.64;48.26;101717.72;4998144;28;47427;-63
2021/10/22 00:56:04;;;;;;;;;4.67;4.00;;;;;18.63;48.50;101719.50;4998251;28;45638;-63
2021/10/22 00:58:29;;;;;;;;;5.00;5.00;;;;;18.63;48.35;101718.63;4998398;28;45380;-63
2021/10/22 01:00:55;;;;;;;;;5.67;3.67;;;;;18.63;48.54;101705.31;4998334;28;45373;-63
2021/10/22 01:03:20;;;;;;;;;4.67;4.00;;;;;18.63;48.28;101715.97;4998185;28;46170;-63
2021/10/22 01:05:46;;;;;;;;;5.67;3.33;;;;;18.61;48.51;101713.28;4998141;28;45396;-63
2021/10/22 01:08:11;;;;;;;;;5.67;4.00;;;;;18.62;48.50;101715.09;4998210;28;45159;-62
2021/10/22 01:10:38;;;;;;;;;5.67;3.67;;;;;18.61;48.46;101723.06;4998409;28;45555;-63
2021/10/22 01:13:04;;;;;;;;;4.00;4.00;;;;;18.61;48.15;101729.28;4998057;28;46243;-63
2021/10/22 01:15:29;;;;;;;;;4.33;4.00;;;;;18.61;48.13;101723.06;4998016;28;45754;-63
2021/10/22 01:17:56;;;;;;;;;4.00;4.00;;;;;18.62;48.08;101719.50;4997984;28;45428;-63
2021/10/22 01:20:23;;;;;;;;;4.00;3.00;;;;;18.61;48.60;101723.06;4998194;28;45403;-64
2021/10/22 01:22:51;;;;;;;;;3.67;3.67;;;;;18.61;48.32;101723.06;4997654;28;46413;-63
2021/10/22 01:25:22;;;;;;;;;6.33;3.67;;;;;18.60;48.56;101737.25;4997984;28;45286;-63
2021/10/22 01:27:49;;;;;;;;;3.00;3.00;;;;;18.59;48.24;101736.38;4997938;28;45450;-64
2021/10/22 01:30:17;;;;;;;;;4.00;4.00;;;;;18.59;48.18;101739.03;4997949;28;45346;-63
2021/10/22 01:32:43;;;;;;;;;2.67;2.67;;;;;18.60;48.30;101731.94;4997414;28;46535;-63
2021/10/22 01:35:09;;;;;;;;;4.33;2.67;;;;;18.59;48.53;101733.72;4997496;28;45389;-63
2021/10/22 01:37:36;;;;;;;;;5.00;4.00;;;;;18.59;48.38;101733.72;4997722;28;45214;-63
2021/10/22 01:40:03;;;;;;;;;5.67;4.67;;;;;18.58;48.42;101734.63;4996609;28;45436;-63
2021/10/22 01:42:29;;;;;;;;;4.00;3.33;;;;;18.59;48.16;101735.50;4997560;28;46155;-63
2021/10/22 01:44:54;;;;;;;;;4.00;3.00;;;;;18.58;48.48;101734.63;4997520;28;45332;-63
2021/10/22 01:47:21;;;;;;;;;3.67;2.33;;;;;18.57;48.23;101738.16;4997714;28;45370;-63
2021/10/22 01:49:47;;;;;;;;;2.67;2.67;;;;;18.56;48.24;101732.81;4998059;28;45360;-63
2021/10/22 01:52:13;;;;;;;;;4.00;4.00;;;;;18.57;48.25;101737.28;4997159;28;46904;-63
2021/10/22 01:54:39;;;;;;;;;4.67;4.00;;;;;18.57;48.17;101731.97;4997455;28;45252;-64
2021/10/22 01:57:05;;;;;;;;;5.00;3.00;;;;;18.57;48.27;101742.59;4997346;28;45261;-63
2021/10/22 01:59:31;;;;;;;;;3.67;3.67;;;;;18.56;47.96;101740.81;4997764;28;45496;-64
2021/10/22 02:01:56;;;;;;;;;5.00;5.00;;;;;18.56;48.15;101746.13;4997111;28;46266;-63
2021/10/22 02:04:22;;;;;;;;;2.67;2.67;;;;;18.56;48.13;101744.38;4997410;28;45425;-63
2021/10/22 02:06:48;;;;;;;;;3.33;3.33;;;;;18.56;48.16;101740.81;4997445;28;45274;-63
2021/10/22 02:09:14;;;;;;;;;3.33;2.33;;;;;18.55;48.16;101736.41;4997361;28;45437;-63
2021/10/22 02:11:40;;;;;;;;;2.67;2.67;;;;;18.55;47.74;101733.72;4996987;28;46160;-62
2021/10/22 02:14:05;;;;;;;;;2.33;2.00;;;;;18.55;48.03;101734.59;4997186;28;45415;-63
2021/10/22 02:16:31;;;;;;;;;7.67;5.00;;;;;18.54;47.96;101737.25;4997299;28;45724;-63
2021/10/22 02:18:56;;;;;;;;;3.33;3.00;;;;;18.55;48.00;101741.72;4997560;28;45206;-63
2021/10/22 02:21:22;;;;;;;;;4.00;4.00;;;;;18.54;48.02;101746.16;4996621;28;47413;-63
2021/10/22 02:23:47;;;;;;;;;2.33;2.33;;;;;18.54;47.88;101732.84;4997156;28;46177;-63
2021/10/22 02:26:12;;;;;;;;;5.33;5.00;;;;;18.54;48.08;101735.50;4996905;28;45609;-63
2021/10/22 02:28:38;;;;;;;;;6.00;4.00;;;;;18.54;47.92;101739.94;4997386;28;45467;-62
2021/10/22 02:31:03;;;;;;;;;3.00;3.00;;;;;18.52;48.20;101735.50;4996764;28;46130;-63
2021/10/22 02:33:29;;;;;;;;;3.33;3.33;;;;;18.52;47.81;101734.63;4996687;28;45788;-63
2021/10/22 02:35:54;;;;;;;;;5.00;5.00;;;;;18.53;47.97;101739.03;4996972;28;45219;-63
2021/10/22 02:38:19;;;;;;;;;4.00;3.33;;;;;18.51;47.88;101732.81;4997175;28;45381;-62
2021/10/22 02:40:45;;;;;;;;;3.67;3.67;;;;;18.52;48.05;101726.63;4996817;28;46091;-63
2021/10/22 02:43:10;;;;;;;;;4.33;3.67;;;;;18.52;47.84;101729.28;4996752;28;45417;-64
2021/10/22 02:45:35;;;;;;;;;5.33;5.00;;;;;18.51;47.87;101730.16;4996872;28;45270;-63
2021/10/22 02:48:01;;;;;;;;;5.00;5.00;;;;;18.51;47.81;101724.84;4997195;28;45630;-63
2021/10/22 02:50:26;;;;;;;;;4.00;4.00;;;;;18.50;47.82;101731.97;4997484;28;46530;-63
2021/10/22 02:52:52;;;;;;;;;4.00;4.00;;;;;18.51;47.64;101741.69;5000280;28;45341;-63
2021/10/22 02:55:18;;;;;;;;;3.67;2.33;;;;;18.50;47.71;101739.94;5000290;28;45333;-63
2021/10/22 02:57:44;;;;;;;;;3.00;3.00;;;;;18.50;47.88;101739.94;5000274;28;45455;-63
2021/10/22 03:00:11;;;;;;;;;2.00;2.00;;;;;18.50;47.77;101749.69;5000222;28;46240;-63
2021/10/22 03:02:37;;;;;;;;;4.00;4.00;;;;;18.49;47.84;101750.56;5000059;28;45234;-64
2021/10/22 03:05:02;;;;;;;;;3.00;3.00;;;;;18.49;47.74;101746.13;5000176;28;45464;-62
2021/10/22 03:07:28;;;;;;;;;3.67;3.67;;;;;18.49;47.87;101748.81;4999932;28;45459;-63
2021/10/22 03:09:53;;;;;;;;;4.00;4.00;;;;;18.48;47.77;101739.06;4999795;28;45225;-63
2021/10/22 03:12:19;;;;;;;;;4.00;4.00;;;;;18.48;47.76;101738.16;4999993;28;45282;-63
2021/10/22 03:14:44;;;;;;;;;3.33;3.33;;;;;18.48;47.73;101738.16;5000170;28;45557;-63
2021/10/22 03:17:10;;;;;;;;;3.00;3.00;;;;;18.47;47.84;101739.94;5000138;28;45240;-63
2021/10/22 03:19:35;;;;;;;;;4.00;4.00;;;;;18.47;47.79;101739.94;4999618;28;46490;-63
2021/10/22 03:22:00;;;;;;;;;2.67;2.67;;;;;18.48;48.25;101744.38;4999615;28;45341;-63
2021/10/22 03:24:26;;;;;;;;;3.00;3.00;;;;;18.47;47.67;101741.69;4999779;28;45441;-63
2021/10/22 03:26:51;;;;;;;;;3.33;3.33;;;;;18.47;47.77;101741.69;5000263;28;45608;-63
2021/10/22 03:29:17;;;;;;;;;3.00;3.00;;;;;18.48;47.94;101743.47;4999922;28;46118;-62
2021/10/22 03:31:42;;;;;;;;;4.00;2.33;;;;;18.47;47.60;101745.25;4999248;28;45375;-63
2021/10/22 03:34:07;;;;;;;;;3.00;2.67;;;;;18.46;47.62;101743.50;4999115;28;45481;-63
2021/10/22 03:36:37;;;;;;;;;3.00;3.00;;;;;18.47;47.74;101744.34;4999978;28;45309;-63
2021/10/22 03:39:03;;;;;;;;;2.00;2.00;;;;;18.45;47.95;101749.69;4999405;28;46544;-63
2021/10/22 03:41:29;;;;;;;;;2.00;2.00;;;;;18.45;47.40;101747.03;4999281;28;45264;-63
2021/10/22 03:43:54;;;;;;;;;2.33;2.33;;;;;18.45;47.69;101752.34;4999486;28;45211;-63
2021/10/22 03:46:20;;;;;;;;;4.33;4.00;;;;;18.45;47.57;101751.47;4999722;28;45270;-63
2021/10/22 03:48:45;;;;;;;;;1.67;1.67;;;;;18.45;47.80;101746.13;4999318;28;46245;-63
2021/10/22 03:51:12;;;;;;;;;4.00;3.33;;;;;18.45;47.78;101755.00;4999428;28;45378;-63
2021/10/22 03:53:37;;;;;;;;;4.00;2.67;;;;;18.45;47.65;101751.47;4999357;28;45402;-63
2021/10/22 03:56:03;;;;;;;;;3.33;2.33;;;;;18.45;47.76;101751.47;4999412;28;45460;-63
2021/10/22 03:58:29;;;;;;;;;5.00;5.00;;;;;18.45;47.46;101748.78;4998982;28;46265;-63
2021/10/22 04:00:54;;;;;;;;;2.67;2.67;;;;;18.45;47.26;101751.47;4999402;28;45373;-63
2021/10/22 04:03:19;;;;;;;;;3.33;3.00;;;;;18.44;47.38;101752.34;4980802;28;45453;-63
2021/10/22 04:05:45;;;;;;;;;4.00;4.00;;;;;18.43;47.53;101754.13;4999557;28;45360;-63
2021/10/22 04:08:11;;;;;;;;;2.33;2.33;;;;;18.43;47.58;101751.47;4999022;28;47229;-63
2021/10/22 04:10:36;;;;;;;;;2.33;2.33;;;;;18.43;47.69;101747.91;4999095;28;45302;-62
2021/10/22 04:13:02;;;;;;;;;4.00;4.00;;;;;18.43;47.32;101755.88;4999036;28;45276;-63
2021/10/22 04:15:28;;;;;;;;;3.00;3.00;;;;;18.42;47.19;101757.69;4999239;28;45273;-63
2021/10/22 04:17:53;;;;;;;;;5.33;3.33;;;;;18.42;47.53;101749.72;4998760;28;46891;-63
2021/10/22 04:20:19;;;;;;;;;4.33;3.67;;;;;18.41;47.43;101747.91;4999117;28;45246;-63
2021/10/22 04:22:44;;;;;;;;;2.67;2.67;;;;;18.40;47.34;101752.34;4998991;28;45254;-63
2021/10/22 04:25:10;;;;;;;;;4.00;4.00;;;;;18.40;47.39;101747.00;4999062;28;45476;-63
2021/10/22 04:27:36;;;;;;;;;3.00;2.33;;;;;18.40;47.21;101752.34;4998526;28;46372;-63
2021/10/22 04:30:07;;;;;;;;;2.00;2.00;;;;;18.40;47.29;101747.00;4998575;28;45265;-63
2021/10/22 04:32:33;;;;;;;;;4.33;3.67;;;;;18.39;47.66;101750.59;4998615;28;45491;-63
2021/10/22 04:34:58;;;;;;;;;2.00;2.00;;;;;18.38;47.17;101748.78;4998810;28;45260;-64
2021/10/22 04:37:29;;;;;;;;;3.00;3.00;;;;;18.39;47.26;101757.66;4998611;28;46050;-63
2021/10/22 04:42:46;;;;;;;;;3.67;3.67;;;;;18.38;47.45;101763.91;4998658;28;45314;-63
2021/10/22 04:45:12;;;;;;;;;4.33;4.33;;;;;18.38;47.30;101774.53;4998610;28;45540;-63
2021/10/22 04:47:39;;;;;;;;;2.00;2.00;;;;;18.37;47.42;101786.06;4998312;28;47101;-63
2021/10/22 04:50:07;;;;;;;;;2.67;2.00;;;;;18.36;47.71;101771.84;4998423;28;45395;-63
2021/10/22 04:52:35;;;;;;;;;2.00;2.00;;;;;18.38;47.34;101785.19;4998564;28;45289;-63
2021/10/22 04:55:01;;;;;;;;;3.67;1.00;;;;;18.36;47.47;101790.50;4998360;28;45324;-63
2021/10/22 04:57:26;;;;;;;;;3.00;2.67;;;;;18.35;47.31;101791.38;4998261;28;45899;-63
2021/10/22 04:59:52;;;;;;;;;2.33;2.33;;;;;18.36;47.21;101790.50;4998399;28;45352;-63
2021/10/22 05:02:17;;;;;;;;;2.33;2.33;;;;;18.35;47.28;101793.16;4998691;28;45388;-63
2021/10/22 05:04:42;;;;;;;;;3.00;2.00;;;;;18.35;47.31;101787.84;4998694;28;45388;-63
2021/10/22 05:07:08;;;;;;;;;3.33;2.00;;;;;18.36;47.42;101795.81;4997969;28;45973;-63
2021/10/22 05:09:33;;;;;;;;;2.00;2.00;;;;;18.35;47.45;101809.13;4997999;28;45406;-63
2021/10/22 05:12:05;;;;;;;;;4.67;2.33;;;;;18.35;47.38;101796.72;4998031;28;45312;-63
2021/10/22 05:14:30;;;;;;;;;3.00;3.00;;;;;18.35;47.62;101796.72;4998169;28;45501;-63
2021/10/22 05:16:56;;;;;;;;;2.67;1.67;;;;;18.34;47.15;101802.91;4997955;28;45676;-63
2021/10/22 05:19:21;;;;;;;;;2.33;2.00;;;;;18.33;47.34;101803.81;4998324;28;45652;-62
2021/10/22 05:21:46;;;;;;;;;1.33;1.33;;;;;18.32;47.55;101802.03;4998274;28;45400;-63
2021/10/22 05:24:12;;;;;;;;;2.00;1.67;;;;;18.33;47.11;101800.25;4998052;28;45495;-63
2021/10/22 05:26:37;;;;;;;;;4.33;2.00;;;;;18.32;47.39;101795.81;4997988;28;45985;-63
2021/10/22 05:29:03;;;;;;;;;1.00;1.00;;;;;18.33;47.42;101793.16;4997688;28;45439;-63
2021/10/22 05:31:28;;;;;;;;;3.67;2.00;;;;;18.32;47.53;101807.34;4997888;28;45499;-63
2021/10/22 05:33:53;;;;;;;;;2.00;2.00;;;;;18.32;47.47;101804.69;4998162;28;45443;-63
2021/10/22 05:36:18;;;;;;;;;2.00;2.00;;;;;18.32;47.27;101796.69;4997832;28;45451;-64
2021/10/22 05:38:44;;;;;;;;;1.00;1.00;;;;;18.33;47.30;101797.59;4996378;28;45518;-64
2021/10/22 05:41:09;;;;;;;;;4.00;3.00;;;;;18.31;47.38;101797.59;4997642;28;45436;-62
2021/10/22 05:43:35;;;;;;;;;2.00;1.00;;;;;18.32;47.46;101806.47;4997774;28;45444;-64
2021/10/22 05:46:01;;;;;;;;;3.67;3.67;;;;;18.32;47.53;101806.47;4997408;28;45927;-64
2021/10/22 05:48:27;;;;;;;;;2.00;2.00;;;;;18.31;47.56;101802.03;4996191;28;45487;-64
2021/10/22 05:50:52;;;;;;;;;1.67;1.67;;;;;18.30;47.62;101803.78;4997719;28;45355;-64
2021/10/22 05:53:17;;;;;;;;;3.67;2.00;;;;;18.31;47.71;101804.69;4980136;28;45325;-64
2021/10/22 05:55:43;;;;;;;;;1.33;1.33;;;;;18.30;47.66;101805.59;4997199;28;47183;-64
2021/10/22 05:58:08;;;;;;;;;4.00;2.00;;;;;18.30;47.36;101808.25;4997047;28;45397;-64
2021/10/22 06:00:34;;;;;;;;;2.33;1.00;;;;;18.30;47.40;101811.78;4997436;28;45659;-64
2021/10/22 06:03:00;;;;;;;;;2.00;2.00;;;;;18.29;47.74;101812.69;4997639;28;45313;-64
2021/10/22 06:05:25;;;;;;;;;2.00;2.00;;;;;18.28;47.62;101810.88;4996960;28;47544;-64
2021/10/22 06:07:50;;;;;;;;;2.00;2.00;;;;;18.28;47.58;101814.44;4997287;28;45272;-64
2021/10/22 06:10:16;;;;;;;;;2.00;2.00;;;;;18.29;47.33;101815.34;4997154;28;45371;-64
2021/10/22 06:12:41;;;;;;;;;1.00;1.00;;;;;18.28;47.49;101819.75;4997432;28;45494;-65
2021/10/22 06:15:07;;;;;;;;;1.33;1.33;;;;;18.28;47.35;101821.53;4996916;28;46766;-64
2021/10/22 06:17:32;;;;;;;;;2.00;2.00;;;;;18.28;47.01;101824.19;4996983;28;45319;-62
2021/10/22 06:20:05;;;;;;;;;2.67;2.00;;;;;18.27;47.66;101825.09;4997362;28;45392;-66
2021/10/22 06:24:59;;;;;;;;;1.00;1.00;;;;;18.28;47.91;101824.19;4996122;28;45408;-64
2021/10/22 06:27:25;;;;;;;;;2.00;2.00;;;;;18.29;47.82;101823.31;4996590;28;45486;-64
2021/10/22 06:29:51;;;;;;;;;2.00;2.00;;;;;18.27;47.78;101823.28;4997083;28;45451;-62
2021/10/22 06:32:16;;;;;;;;;3.00;1.67;;;;;18.28;47.83;101827.75;4997061;28;45520;-64
2021/10/22 06:34:41;;;;;;;;;2.00;2.00;;;;;18.27;47.49;101830.41;4996866;28;45277;-65
2021/10/22 06:37:07;;;;;;;;;2.00;1.67;;;;;18.28;47.32;101832.19;4996921;28;45303;-63
2021/10/22 06:39:32;;;;;;;;;2.00;2.00;;;;;18.27;47.02;101833.06;4996858;28;45218;-62
2021/10/22 06:41:57;;;;;;;;;4.33;2.00;;;;;18.27;46.85;101847.25;4997300;28;45322;-63
2021/10/22 06:44:26;;;;;;;;;2.67;2.00;;;;;18.26;47.02;101856.13;4996535;28;46119;-62
2021/10/22 06:46:51;;;;;;;;;2.00;2.00;;;;;18.26;46.66;101860.56;4996683;28;45318;-62
2021/10/22 06:49:17;;;;;;;;;2.00;2.00;;;;;18.26;46.65;101868.53;4996958;28;45463;-62
2021/10/22 06:51:42;;;;;;;;;2.00;2.00;;;;;18.25;46.49;101864.13;4997041;28;45381;-62
2021/10/22 06:54:08;;;;;;;;;2.67;2.67;;;;;18.24;46.41;101873.88;4996728;28;46561;-62
2021/10/22 06:56:34;;;;;;;;;2.00;2.00;;;;;18.24;46.32;101875.63;4996475;28;45364;-62
2021/10/22 06:58:59;;;;;;;;;2.00;2.00;;;;;18.24;46.09;101879.19;4996641;28;45781;-62
2021/10/22 07:01:24;;;;;;;;;2.00;2.00;;;;;18.24;46.20;101878.28;4996616;28;45380;-62
2021/10/22 07:03:51;;;;;;;;;2.67;2.67;;;;;18.23;45.96;101885.38;4996818;28;47241;-63
2021/10/22 07:09:00;;;;;;;;;5.00;3.00;;;;;18.22;45.83;101882.72;4996336;28;45366;-62
2021/10/22 07:11:26;;;;;;;;;2.67;1.00;;;;;18.23;45.66;101887.19;4996585;28;45576;-62
2021/10/22 07:13:54;;;;;;;;;3.33;2.00;;;;;18.22;45.47;101890.72;4996415;28;46145;-62
2021/10/22 07:16:21;;;;;;;;;2.67;2.67;;;;;18.21;45.74;101889.81;4996597;28;45337;-62
2021/10/22 07:18:49;;;;;;;;;1.67;1.67;;;;;18.21;45.40;101878.31;4996448;28;45441;-62
2021/10/22 07:21:16;;;;;;;;;2.00;2.00;;;;;18.22;45.58;101880.97;4996471;28;45452;-62
2021/10/22 07:23:44;;;;;;;;;3.00;3.00;;;;;18.20;45.49;101887.16;4995995;28;46042;-62
2021/10/22 07:26:09;;;;;;;;;2.00;2.00;;;;;18.20;45.24;101885.38;4996113;28;45224;-62
2021/10/22 07:28:34;;;;;;;;;1.67;1.67;;;;;18.21;45.17;101894.28;4996139;28;45292;-62
2021/10/22 07:31:01;;;;;;;;;5.00;2.00;;;;;18.20;45.07;101896.03;4996593;28;45424;-64
2021/10/22 07:33:27;;;;;;;;;3.00;3.00;;;;;18.20;45.09;101897.78;4995860;28;47360;-62
2021/10/22 07:35:55;;;;;;;;;2.00;2.00;;;;;18.19;45.36;101906.69;4995952;28;45361;-65
2021/10/22 07:38:20;;;;;;;;;2.00;2.00;;;;;18.19;45.14;101909.34;4999693;28;45269;-62
2021/10/22 07:40:46;;;;;;;;;3.00;2.67;;;;;18.20;44.94;101908.44;4999607;28;45545;-62
2021/10/22 07:43:14;;;;;;;;;1.00;1.00;;;;;18.19;45.16;101901.34;4999633;28;45999;-62
2021/10/22 07:45:41;;;;;;;;;2.00;2.00;;;;;18.19;44.98;101904.03;4999228;28;45230;-62
2021/10/22 07:48:06;;;;;;;;;2.33;2.00;;;;;18.19;44.90;101906.69;4999456;28;45214;-63
2021/10/22 07:50:32;;;;;;;;;2.00;2.00;;;;;18.17;44.64;101898.66;4999789;28;45360;-62
2021/10/22 07:52:57;;;;;;;;;2.00;2.00;;;;;18.17;44.55;101910.22;4999322;28;46445;-62
2021/10/22 07:55:23;;;;;;;;;1.67;1.67;;;;;18.16;44.75;101911.06;4999209;28;45458;-62
2021/10/22 07:57:49;;;;;;;;;5.67;3.00;;;;;18.16;44.82;101911.06;4999260;28;45536;-62
2021/10/22 08:00:14;;;;;;;;;3.00;3.00;;;;;18.16;44.71;101916.41;4999384;28;45516;-63
2021/10/22 08:02:40;;;;;;;;;3.00;3.00;;;;;18.15;44.96;101917.25;4999284;28;45897;-64
2021/10/22 08:05:07;;;;;;;;;3.33;2.00;;;;;18.15;44.80;101917.25;4999073;28;45369;-62
2021/10/22 08:07:37;;;;;;;;;3.00;3.00;;;;;18.14;44.59;101928.81;4999199;28;45403;-62
2021/10/22 08:10:05;;;;;;;;;3.00;3.00;;;;;18.14;44.60;101925.25;4998852;28;45309;-62
2021/10/22 08:12:31;;;;;;;;;5.67;3.33;;;;;18.13;44.36;101932.34;4998827;28;47200;-62
2021/10/22 08:14:56;;;;;;;;;3.00;3.00;;;;;18.14;44.41;101935.88;4998704;28;45483;-63
2021/10/22 08:17:22;;;;;;;;;2.00;2.00;;;;;18.14;44.58;101934.13;4999105;28;45378;-62
2021/10/22 08:19:56;;;;;;;;;6.33;2.00;;;;;18.14;44.21;101936.78;4999332;28;45258;-63
2021/10/22 08:22:27;;;;;;;;;2.00;2.00;;;;;18.14;44.46;101946.53;4998722;28;46499;-63
2021/10/22 08:25:04;;;;;;;;;2.67;2.00;;;;;18.14;44.75;101939.44;4998656;28;45384;-62
2021/10/22 08:27:32;;;;;;;;;3.67;3.00;;;;;18.12;44.44;101949.19;4998744;28;45368;-62
2021/10/22 08:29:58;;;;;;;;;4.00;2.33;;;;;18.13;44.46;101955.38;4998957;28;45365;-62
2021/10/22 08:32:23;;;;;;;;;4.33;2.33;;;;;18.13;44.69;101958.03;4998507;28;45497;-62
2021/10/22 08:34:49;;;;;;;;;2.67;2.67;;;;;18.12;44.27;101962.50;4998937;28;45264;-63
2021/10/22 08:37:14;;;;;;;;;3.00;3.00;;;;;18.12;44.39;101965.16;4998711;28;45245;-62
2021/10/22 08:39:45;;;;;;;;;4.67;4.00;;;;;18.12;44.33;101959.84;4998799;28;45575;-62
2021/10/22 08:42:13;;;;;;;;;6.00;4.00;;;;;18.11;44.18;101968.69;4998370;28;47306;-65
2021/10/22 08:44:43;;;;;;;;;5.00;5.00;;;;;18.11;44.05;101968.69;4998534;28;45362;-62
2021/10/22 08:47:09;;;;;;;;;5.33;4.00;;;;;18.11;44.16;101965.13;4998470;28;45455;-63
2021/10/22 08:49:37;;;;;;;;;3.00;3.00;;;;;18.10;44.35;101966.94;4998082;28;45383;-62
2021/10/22 08:52:03;;;;;;;;;4.00;4.00;;;;;18.10;44.54;101974.91;4998169;28;45418;-63
2021/10/22 08:54:32;;;;;;;;;5.33;5.00;;;;;18.11;44.31;101970.44;4998124;28;45402;-63
2021/10/22 08:56:58;;;;;;;;;4.33;3.33;;;;;18.10;44.03;101966.94;4998454;28;45426;-63
2021/10/22 08:59:24;;;;;;;;;4.00;2.67;;;;;18.09;44.07;101965.13;4998503;28;45457;-63
2021/10/22 09:02:37;;;;;;;;;2.67;2.67;;;;;18.10;44.24;101974.00;4998242;28;47090;-62
2021/10/22 09:05:13;;;;;;;;;2.00;2.00;;;;;18.09;44.10;101982.84;4937213;28;45473;-63
2021/10/22 09:07:43;;;;;;;;;5.33;3.00;;;;;18.08;44.21;101984.66;4937420;28;45471;-62
2021/10/22 09:10:15;;;;;;;;;3.67;3.67;;;;;18.09;44.26;101980.19;4937554;28;45455;-62
2021/10/22 09:12:45;;;;;;;;;4.00;3.00;;;;;18.08;44.07;101978.44;4937356;28;46998;-63
2021/10/22 09:15:12;;;;;;;;;3.00;3.00;;;;;18.08;44.12;101982.00;4937105;28;45208;-64
2021/10/22 09:17:40;;;;;;;;;4.67;4.67;;;;;18.07;44.18;101988.19;4937500;28;45512;-62
2021/10/22 09:20:07;;;;;;;;;3.67;3.67;;;;;18.06;44.35;101986.41;4937473;28;45531;-63
2021/10/22 09:22:34;;;;;;;;;7.00;3.00;;;;;18.07;44.46;101993.50;4937152;28;46972;-62
2021/10/22 09:25:07;;;;;;;;;5.00;4.00;;;;;18.06;44.26;101994.41;4937317;28;45419;-62
2021/10/22 09:27:44;;;;;;;;;4.00;3.00;;;;;18.05;44.22;102001.47;4937025;28;45395;-62
2021/10/22 09:30:32;;;;;;;;;3.00;3.00;;;;;18.07;44.16;102009.47;4937080;28;45497;-63
2021/10/22 09:33:11;;;;;;;;;3.67;3.67;;;;;18.06;44.49;102005.03;4936265;28;46361;-62
2021/10/22 09:35:46;;;;;;;;;3.00;3.00;;;;;18.05;44.37;102005.91;4937082;28;45287;-62
2021/10/22 09:38:23;;;;;;;;;2.00;2.00;;;;;18.05;44.40;102000.59;4936303;28;45486;-61
2021/10/22 09:40:55;;;;;;;;;2.00;2.00;;;;;18.05;44.19;102008.56;4951595;28;45656;-62
2021/10/22 09:43:30;;;;;;;;;4.33;3.33;;;;;18.04;44.44;102009.47;4997368;28;46316;-62
2021/10/22 09:46:10;;;;;;;;;3.00;2.00;;;;;18.05;44.40;102016.53;4997351;28;45348;-63
2021/10/22 09:48:38;;;;;;;;;4.33;4.00;;;;;18.01;44.43;102006.75;4997434;28;45155;-62
2021/10/22 09:51:27;;;;;;;;;2.00;2.00;;;;;18.03;44.35;102013.88;4997646;28;45336;-63
2021/10/22 09:53:55;;;;;;;;;3.33;2.00;;;;;18.01;44.44;102018.31;4996604;28;45292;-64
2021/10/22 09:56:26;;;;;;;;;3.00;2.00;;;;;18.02;44.41;102011.22;4997351;28;45392;-62
2021/10/22 09:58:59;;;;;;;;;2.00;2.00;;;;;18.02;44.24;102016.53;4997491;28;45461;-62
2021/10/22 10:01:32;;;;;;;;;1.00;1.00;;;;;18.02;44.32;102011.22;4996311;28;45416;-62
2021/10/22 10:03:58;;;;;;;;;2.00;2.00;;;;;18.00;44.47;102016.50;4997210;28;47042;-63
2021/10/22 10:06:24;;;;;;;;;4.00;2.00;;;;;18.00;44.22;102007.66;4996978;28;45466;-65
2021/10/22 10:08:50;;;;;;;;;5.33;3.00;;;;;18.00;44.10;102019.16;4997410;28;45372;-62
2021/10/22 10:11:16;;;;;;;;;3.00;2.00;;;;;17.99;44.30;102017.41;4997777;28;45445;-64
2021/10/22 10:13:42;;;;;;;;;3.00;3.00;;;;;18.00;44.17;102015.66;4997019;28;46285;-63
2021/10/22 10:16:09;;;;;;;;;2.00;1.67;;;;;18.00;44.28;102024.50;4997329;28;45236;-63
2021/10/22 10:18:53;;;;;;;;;3.00;2.67;;;;;18.00;44.38;102027.16;4997310;28;45467;-62
2021/10/22 10:21:21;;;;;;;;;2.00;2.00;;;;;17.99;44.42;102028.03;4997469;28;45448;-62
2021/10/22 10:23:49;;;;;;;;;2.33;2.33;;;;;17.99;44.45;102024.50;4996923;28;47083;-62
2021/10/22 10:26:24;;;;;;;;;3.67;1.67;;;;;17.99;44.30;102021.81;4997003;28;45387;-65
2021/10/22 10:28:51;;;;;;;;;1.67;1.67;;;;;17.99;44.37;102033.38;4997347;28;45310;-62
2021/10/22 10:31:42;;;;;;;;;2.00;2.00;;;;;17.99;44.39;102033.38;4997230;28;45414;-60
2021/10/22 10:34:26;;;;;;;;;2.00;2.00;;;;;17.98;44.49;102033.38;4996857;28;47332;-62
2021/10/22 10:36:53;;;;;;;;;5.33;3.00;;;;;17.97;44.53;102034.22;4996799;28;45304;-63
2021/10/22 10:39:48;;;;;;;;;2.67;2.33;;;;;17.97;44.49;102034.22;4996960;28;45415;-64
2021/10/22 10:42:19;;;;;;;;;3.67;2.00;;;;;17.98;44.79;102041.34;4980111;28;45468;-64
2021/10/22 10:44:46;;;;;;;;;3.00;2.00;;;;;17.97;44.61;102031.56;4996658;28;46099;-64
2021/10/22 10:47:30;;;;;;;;;3.67;2.67;;;;;17.98;44.58;102033.38;4996760;28;45716;-65
2021/10/22 10:49:55;;;;;;;;;3.00;2.00;;;;;17.96;44.62;102029.81;4996772;28;45366;-66
2021/10/22 10:52:40;;;;;;;;;1.67;1.67;;;;;17.97;44.52;102031.56;4996896;28;45438;-62
2021/10/22 10:55:14;;;;;;;;;2.33;2.33;;;;;17.95;44.57;102028.91;4996569;28;47061;-63
2021/10/22 10:57:51;;;;;;;;;0.00;0.00;;;;;17.96;44.85;102032.47;4996389;28;45197;-65
2021/10/22 11:00:20;;;;;;;;;5.00;2.00;;;;;17.96;44.98;102027.16;4996827;28;45640;-62
2021/10/22 11:03:04;;;;;;;;;4.00;2.00;;;;;17.96;44.88;102027.16;4996819;28;45337;-64
2021/10/22 11:05:44;;;;;;;;;3.00;2.67;;;;;17.94;45.09;102020.03;4996582;28;45431;-63
2021/10/22 11:08:14;;;;;;;;;2.33;2.33;;;;;17.95;44.86;102018.25;4996438;28;45364;-64
2021/10/22 11:10:59;;;;;;;;;2.00;2.00;;;;;17.94;45.19;102021.78;4996254;28;45417;-63
2021/10/22 11:13:45;;;;;;;;;3.00;2.67;;;;;17.94;45.10;102019.13;5000063;28;45375;-64
2021/10/22 11:16:38;;;;;;;;;2.00;2.00;;;;;17.93;45.12;102028.91;4999763;28;47287;-65
2021/10/22 11:19:13;;;;;;;;;2.00;2.00;;;;;17.93;45.29;102023.59;4999610;28;45626;-63
2021/10/22 11:21:53;;;;;;;;;4.00;3.00;;;;;17.93;45.29;102025.34;4999910;28;45415;-63
2021/10/22 11:24:27;;;;;;;;;2.00;2.00;;;;;17.93;45.15;102025.34;5000065;28;45508;-67
2021/10/22 11:27:03;;;;;;;;;2.00;2.00;;;;;17.93;45.02;102018.25;4999640;28;46510;-62
2021/10/22 11:29:32;;;;;;;;;1.33;1.33;;;;;17.92;45.30;102018.22;4999607;28;45238;-64
2021/10/22 11:32:10;;;;;;;;;2.00;2.00;;;;;17.93;45.23;102017.38;4999313;28;45350;-64
2021/10/22 11:34:37;;;;;;;;;3.00;2.00;;;;;17.92;45.07;102020.88;4999905;28;45368;-64